createdAt,value
2022-08-10T00:01:52.452Z,15.30
2022-08-10T00:04:24.349Z,15.30
2022-08-10T00:06:55.687Z,15.30
2022-08-10T00:09:24.050Z,15.20
2022-08-10T00:11:51.575Z,15.20
2022-08-10T00:14:19.397Z,15.20
2022-08-10T00:16:47.747Z,15.20
2022-08-10T00:19:16.709Z,15.20
2022-08-10T00:21:46.630Z,15.20
2022-08-10T00:24:14.577Z,15.20
2022-08-10T00:27:50.068Z,15.20
2022-08-10T00:29:30.568Z,15.20
2022-08-10T00:31:59.521Z,15.20
2022-08-10T00:34:28.965Z,15.10
2022-08-10T00:36:57.465Z,15.10
2022-08-10T00:39:26.041Z,14.80
2022-08-10T00:42:02.376Z,15.00
2022-08-10T00:44:46.615Z,15.10
2022-08-10T00:47:35.816Z,15.10
2022-08-10T00:50:03.033Z,15.10
2022-08-10T00:52:31.572Z,15.00
2022-08-10T00:55:00.594Z,15.00
2022-08-10T00:57:28.837Z,15.80
2022-08-10T00:59:58.710Z,15.00
2022-08-10T01:02:29.764Z,14.90
2022-08-10T01:05:01.684Z,14.90
2022-08-10T01:08:07.434Z,14.80
2022-08-10T01:10:43.613Z,14.90
2022-08-10T01:13:44.255Z,14.90
2022-08-10T01:16:17.670Z,16.80
2022-08-10T01:19:33.990Z,15.00
2022-08-10T01:22:45.870Z,15.00
2022-08-10T01:25:34.922Z,15.00
2022-08-10T01:28:52.569Z,15.00
2022-08-10T01:31:23.556Z,14.90
2022-08-10T01:34:02.402Z,14.90
2022-08-10T01:36:35.625Z,14.90
2022-08-10T01:39:06.052Z,14.90
2022-08-10T01:41:46.870Z,14.80
2022-08-10T01:44:20.246Z,14.80
2022-08-10T01:46:56.681Z,14.80
2022-08-10T01:49:26.319Z,14.70
2022-08-10T01:52:00.437Z,14.70
2022-08-10T01:54:30.031Z,14.70
2022-08-10T01:57:00.534Z,14.70
2022-08-10T01:59:41.979Z,14.70
2022-08-10T02:02:23.674Z,14.60
2022-08-10T02:04:53.446Z,14.50
2022-08-10T02:07:25.023Z,14.40
2022-08-10T02:09:55.157Z,14.40
2022-08-10T02:12:31.505Z,14.30
2022-08-10T02:15:13.904Z,13.60
2022-08-10T02:18:00.668Z,14.10
2022-08-10T02:20:35.454Z,14.00
2022-08-10T02:23:06.690Z,14.10
2022-08-10T02:25:40.518Z,14.20
2022-08-10T02:28:30.523Z,14.20
2022-08-10T02:31:23.230Z,14.30
2022-08-10T02:33:57.141Z,14.30
2022-08-10T02:36:31.239Z,14.30
2022-08-10T02:39:02.244Z,14.30
2022-08-10T02:45:01.477Z,14.30
2022-08-10T02:45:20.594Z,14.30
2022-08-10T02:47:55.610Z,14.30
2022-08-10T02:50:28.492Z,14.40
2022-08-10T02:53:56.292Z,14.40
2022-08-10T02:56:17.092Z,14.40
2022-08-10T02:58:47.867Z,14.50
2022-08-10T03:01:21.498Z,14.50
2022-08-10T03:03:59.350Z,14.50
2022-08-10T03:06:38.855Z,14.50
2022-08-10T03:09:11.031Z,14.50
2022-08-10T03:12:36.473Z,14.30
2022-08-10T03:14:29.398Z,14.20
2022-08-10T03:16:59.375Z,14.20
2022-08-10T03:20:35.560Z,14.20
2022-08-10T03:22:18.143Z,14.30
2022-08-10T03:24:47.052Z,14.40
2022-08-10T03:27:15.720Z,14.60
2022-08-10T03:30:29.358Z,14.70
2022-08-10T03:32:33.552Z,14.70
2022-08-10T03:35:01.443Z,14.70
2022-08-10T03:37:29.023Z,14.70
2022-08-10T03:39:56.429Z,14.70
2022-08-10T03:42:26.787Z,13.50
2022-08-10T03:44:56.384Z,14.80
2022-08-10T03:47:26.345Z,14.80
2022-08-10T03:49:57.077Z,14.80
2022-08-10T03:52:25.077Z,14.80
2022-08-10T03:54:53.076Z,14.80
2022-08-10T03:57:22.246Z,14.80
2022-08-10T03:59:50.743Z,14.80
2022-08-10T04:02:47.061Z,14.90
2022-08-10T04:05:07.985Z,14.80
2022-08-10T04:07:36.340Z,15.00
2022-08-10T04:10:04.133Z,15.10
2022-08-10T04:12:32.862Z,15.40
2022-08-10T04:15:00.388Z,15.50
2022-08-10T04:18:03.843Z,15.60
2022-08-10T04:20:45.095Z,15.70
2022-08-10T04:23:18.451Z,15.90
2022-08-10T04:25:46.281Z,16.10
2022-08-10T04:28:14.807Z,16.30
2022-08-10T04:30:45.980Z,16.30
2022-08-10T04:33:18.197Z,15.80
2022-08-10T04:35:47.507Z,16.40
2022-08-10T04:38:17.296Z,16.60
2022-08-10T04:40:46.519Z,16.70
2022-08-10T04:43:14.564Z,16.90
2022-08-10T04:45:49.082Z,16.90
2022-08-10T04:48:39.991Z,17.10
2022-08-10T04:51:17.543Z,17.20
2022-08-10T04:54:05.274Z,17.40
2022-08-10T04:56:36.591Z,17.50
2022-08-10T04:59:06.148Z,18.10
2022-08-10T05:02:09.822Z,17.70
2022-08-10T05:04:35.097Z,17.60
2022-08-10T05:07:16.947Z,17.70
2022-08-10T05:10:01.474Z,17.90
2022-08-10T05:12:36.629Z,17.90
2022-08-10T05:15:10.423Z,17.90
2022-08-10T05:17:39.257Z,17.90
2022-08-10T05:20:09.015Z,18.70
2022-08-10T05:22:41.730Z,18.10
2022-08-10T05:25:16.877Z,18.10
2022-08-10T05:27:45.687Z,18.10
2022-08-10T05:30:16.844Z,18.20
2022-08-10T05:32:59.049Z,18.30
2022-08-10T05:35:56.516Z,18.30
2022-08-10T05:38:18.388Z,18.20
2022-08-10T05:40:48.108Z,18.30
2022-08-10T05:43:18.498Z,18.30
2022-08-10T05:46:18.651Z,18.30
2022-08-10T05:48:54.049Z,18.50
2022-08-10T05:51:25.612Z,19.20
2022-08-10T05:54:02.337Z,18.70
2022-08-10T05:56:55.937Z,18.80
2022-08-10T06:00:31.038Z,18.80
2022-08-10T06:02:35.419Z,19.00
2022-08-10T06:05:10.520Z,19.00
2022-08-10T06:07:45.025Z,19.10
2022-08-10T06:10:19.648Z,18.90
2022-08-10T06:13:30.450Z,19.20
2022-08-10T06:16:07.739Z,19.10
2022-08-10T06:18:37.011Z,19.40
2022-08-10T06:21:06.174Z,19.40
2022-08-10T06:23:36.347Z,19.50
2022-08-10T06:26:10.807Z,19.60
2022-08-10T06:28:56.058Z,19.60
2022-08-10T06:31:47.982Z,19.70
2022-08-10T06:34:22.747Z,19.70
2022-08-10T06:36:53.303Z,19.80
2022-08-10T06:39:33.403Z,19.80
2022-08-10T06:42:16.573Z,19.90
2022-08-10T06:44:53.455Z,19.60
2022-08-10T06:47:24.325Z,19.60
2022-08-10T06:50:00.042Z,19.80
2022-08-10T06:52:33.317Z,19.20
2022-08-10T06:55:05.278Z,20.00
2022-08-10T06:57:36.223Z,20.10
2022-08-10T07:00:07.360Z,20.20
2022-08-10T07:02:57.036Z,20.30
2022-08-10T07:05:28.356Z,20.40
2022-08-10T07:07:59.400Z,20.50
2022-08-10T07:10:46.013Z,21.10
2022-08-10T07:14:14.131Z,21.00
2022-08-10T07:16:12.274Z,20.80
2022-08-10T07:18:42.208Z,21.00
2022-08-10T07:21:12.459Z,21.10
2022-08-10T07:23:58.665Z,22.00
2022-08-10T07:26:30.675Z,21.20
2022-08-10T07:29:00.056Z,21.20
2022-08-10T07:31:54.551Z,21.30
2022-08-10T07:34:28.782Z,21.40
2022-08-10T07:37:02.436Z,21.90
2022-08-10T07:40:03.874Z,21.70
2022-08-10T07:42:24.858Z,21.70
2022-08-10T07:44:52.564Z,21.80
2022-08-10T07:47:52.795Z,21.70
2022-08-10T07:50:22.643Z,21.70
2022-08-10T07:52:52.032Z,21.60
2022-08-10T07:56:05.232Z,21.60
2022-08-10T07:58:10.436Z,21.70
2022-08-10T08:00:39.267Z,21.90
2022-08-10T08:03:09.526Z,21.90
2022-08-10T08:05:57.379Z,22.00
2022-08-10T08:08:28.781Z,22.10
2022-08-10T08:10:58.745Z,22.10
2022-08-10T08:13:28.439Z,22.20
2022-08-10T08:16:20.295Z,22.20
2022-08-10T08:19:03.810Z,22.20
2022-08-10T08:24:08.090Z,22.20
2022-08-10T08:24:32.426Z,22.20
2022-08-10T08:27:04.699Z,21.70
2022-08-10T08:29:35.324Z,22.10
2022-08-10T08:32:07.304Z,22.20
2022-08-10T08:34:38.295Z,22.10
2022-08-10T08:37:09.155Z,22.30
2022-08-10T08:39:37.500Z,22.40
2022-08-10T08:42:28.860Z,23.00
2022-08-10T08:45:35.133Z,22.60
2022-08-10T08:48:12.306Z,22.20
2022-08-10T08:51:10.260Z,22.50
2022-08-10T08:54:03.967Z,22.40
2022-08-10T08:56:45.830Z,22.40
2022-08-10T08:59:47.620Z,22.50
2022-08-10T09:02:54.339Z,22.70
2022-08-10T09:05:59.672Z,22.70
2022-08-10T09:08:32.737Z,22.70
2022-08-10T09:11:02.133Z,22.80
2022-08-10T09:13:39.697Z,22.80
2022-08-10T09:16:44.407Z,22.80
2022-08-10T09:19:36.305Z,22.80
2022-08-10T09:22:25.457Z,21.90
2022-08-10T09:25:19.015Z,22.60
2022-08-10T09:28:10.982Z,23.10
2022-08-10T09:31:18.623Z,23.00
2022-08-10T09:36:24.403Z,22.80
2022-08-10T09:37:42.646Z,22.80
2022-08-10T09:40:59.096Z,22.70
2022-08-10T09:43:40.193Z,22.80
2022-08-10T09:46:31.008Z,23.00
2022-08-10T09:49:22.422Z,23.00
2022-08-10T09:52:10.143Z,22.90
2022-08-10T09:55:11.850Z,22.80
2022-08-10T09:57:54.930Z,22.80
2022-08-10T10:00:32.574Z,23.10
2022-08-10T10:03:26.379Z,23.40
2022-08-10T10:06:16.744Z,23.60
2022-08-10T10:09:10.222Z,23.90
2022-08-10T10:11:47.809Z,24.10
2022-08-10T10:14:20.083Z,24.20
2022-08-10T10:17:06.325Z,24.30
2022-08-10T10:19:55.384Z,24.60
2022-08-10T10:23:13.525Z,25.40
2022-08-10T10:26:05.006Z,24.80
2022-08-10T10:29:24.722Z,25.10
2022-08-10T10:31:57.629Z,25.00
2022-08-10T10:34:54.127Z,24.70
2022-08-10T10:38:01.557Z,24.60
2022-08-10T10:40:11.695Z,24.90
2022-08-10T10:42:53.627Z,25.00
2022-08-10T10:45:50.760Z,25.00
2022-08-10T10:48:29.133Z,23.80
2022-08-10T10:51:18.770Z,24.70
2022-08-10T10:53:48.360Z,24.30
2022-08-10T10:56:30.843Z,24.20
2022-08-10T10:59:54.363Z,24.40
2022-08-10T11:02:46.127Z,24.40
2022-08-10T11:05:22.702Z,24.60
2022-08-10T11:08:14.441Z,24.70
2022-08-10T11:12:00.143Z,24.70
2022-08-10T11:14:36.246Z,24.70
2022-08-10T11:17:17.693Z,24.70
2022-08-10T11:20:09.997Z,24.50
2022-08-10T11:23:12.829Z,25.20
2022-08-10T11:25:46.539Z,25.90
2022-08-10T11:28:21.965Z,25.70
2022-08-10T11:30:55.576Z,26.00
2022-08-10T11:34:04.120Z,26.00
2022-08-10T11:36:56.810Z,26.10
2022-08-10T11:39:48.465Z,26.20
2022-08-10T11:42:31.421Z,26.20
2022-08-10T11:45:30.115Z,26.10
2022-08-10T11:48:01.244Z,26.50
2022-08-10T11:50:45.572Z,26.60
2022-08-10T11:53:27.017Z,26.40
2022-08-10T11:56:11.041Z,26.20
2022-08-10T11:59:01.888Z,26.20
2022-08-10T12:01:47.474Z,26.00
2022-08-10T12:04:16.260Z,25.70
2022-08-10T12:06:55.787Z,25.80
2022-08-10T12:10:11.507Z,25.70
2022-08-10T12:12:14.212Z,25.90
2022-08-10T12:15:07.134Z,25.80
2022-08-10T12:17:42.889Z,25.90
2022-08-10T12:20:16.419Z,25.90
2022-08-10T12:22:55.695Z,25.90
2022-08-10T12:25:56.986Z,25.80
2022-08-10T12:28:49.812Z,25.80
2022-08-10T12:31:58.199Z,25.90
2022-08-10T12:34:51.320Z,26.20
2022-08-10T12:37:33.322Z,26.10
2022-08-10T12:40:38.553Z,26.00
2022-08-10T12:44:04.010Z,25.80
2022-08-10T12:46:19.010Z,25.90
2022-08-10T12:49:03.571Z,25.90
2022-08-10T12:51:35.616Z,26.00
2022-08-10T12:54:32.980Z,25.70
2022-08-10T12:57:08.469Z,25.40
2022-08-10T12:59:48.642Z,25.10
2022-08-10T13:02:24.560Z,24.90
2022-08-10T13:04:55.210Z,25.00
2022-08-10T13:08:25.964Z,25.00
2022-08-10T13:10:32.125Z,25.10
2022-08-10T13:13:01.255Z,25.00
2022-08-10T13:15:49.010Z,24.90
2022-08-10T13:18:28.016Z,24.80
2022-08-10T13:21:00.732Z,24.90
2022-08-10T13:23:31.898Z,24.70
2022-08-10T13:26:03.050Z,24.90
2022-08-10T13:28:49.666Z,24.50
2022-08-10T13:31:29.598Z,24.20
2022-08-10T13:34:42.133Z,24.10
2022-08-10T13:37:16.063Z,24.60
2022-08-10T13:39:57.808Z,23.80
2022-08-10T13:42:35.886Z,23.50
2022-08-10T13:45:23.379Z,23.30
2022-08-10T13:47:56.011Z,23.20
2022-08-10T13:50:33.173Z,23.20
2022-08-10T13:53:15.999Z,23.20
2022-08-10T13:55:57.194Z,23.20
2022-08-10T13:58:27.817Z,23.00
2022-08-10T14:00:57.214Z,23.00
2022-08-10T14:03:26.813Z,23.20
2022-08-10T14:05:58.570Z,23.40
2022-08-10T14:08:30.033Z,23.40
2022-08-10T14:11:11.696Z,23.40
2022-08-10T14:13:46.215Z,23.40
2022-08-10T14:16:14.295Z,23.20
2022-08-10T14:18:45.274Z,23.20
2022-08-10T14:21:14.780Z,23.20
2022-08-10T14:23:52.242Z,23.20
2022-08-10T14:26:28.350Z,23.30
2022-08-10T14:29:02.565Z,23.10
2022-08-10T14:31:33.991Z,23.10
2022-08-10T14:34:03.930Z,23.00
2022-08-10T14:36:43.011Z,23.00
2022-08-10T14:39:25.234Z,23.00
2022-08-10T14:42:01.593Z,23.00
2022-08-10T14:44:55.562Z,23.10
2022-08-10T14:47:52.864Z,23.00
2022-08-10T14:50:32.430Z,23.10
2022-08-10T14:53:26.664Z,23.00
2022-08-10T14:56:04.814Z,22.90
2022-08-10T14:59:05.485Z,22.80
2022-08-10T15:02:01.493Z,22.70
2022-08-10T15:04:29.379Z,22.60
2022-08-10T15:07:21.907Z,22.40
2022-08-10T15:10:01.113Z,22.30
2022-08-10T15:12:36.491Z,22.40
2022-08-10T15:15:10.945Z,22.50
2022-08-10T15:17:52.897Z,22.60
2022-08-10T15:20:25.246Z,22.70
2022-08-10T15:23:01.157Z,22.80
2022-08-10T15:25:30.667Z,22.80
2022-08-10T15:28:10.854Z,22.80
2022-08-10T15:30:47.594Z,22.80
2022-08-10T15:33:59.421Z,22.80
2022-08-10T15:36:45.091Z,22.90
2022-08-10T15:40:25.261Z,22.90
2022-08-10T15:42:16.690Z,22.90
2022-08-10T15:44:46.651Z,22.90
2022-08-10T15:47:16.151Z,22.70
2022-08-10T15:49:55.093Z,22.70
2022-08-10T15:52:39.300Z,22.90
2022-08-10T15:55:42.796Z,23.30
2022-08-10T15:58:43.730Z,23.10
2022-08-10T16:02:14.354Z,22.80
2022-08-10T16:04:13.075Z,22.70
2022-08-10T16:07:06.171Z,22.60
2022-08-10T16:10:22.741Z,22.50
2022-08-10T16:12:42.807Z,22.50
2022-08-10T16:15:13.831Z,22.40
2022-08-10T16:17:55.423Z,22.30
2022-08-10T16:20:28.627Z,22.20
2022-08-10T16:23:03.734Z,22.10
2022-08-10T16:25:48.587Z,22.10
2022-08-10T16:28:23.801Z,22.10
2022-08-10T16:30:54.502Z,22.00
2022-08-10T16:33:53.837Z,22.00
2022-08-10T16:36:21.741Z,21.90
2022-08-10T16:38:52.022Z,21.90
2022-08-10T16:42:03.201Z,21.90
2022-08-10T16:44:15.725Z,21.80
2022-08-10T16:46:45.265Z,21.60
2022-08-10T16:49:15.495Z,21.60
2022-08-10T16:51:48.372Z,21.60
2022-08-10T16:54:27.094Z,21.50
2022-08-10T16:57:03.740Z,21.50
2022-08-10T16:59:35.989Z,21.40
2022-08-10T17:02:04.972Z,21.40
2022-08-10T17:04:35.665Z,21.40
2022-08-10T17:07:11.686Z,21.40
2022-08-10T17:09:44.931Z,21.30
2022-08-10T17:12:16.513Z,21.20
2022-08-10T17:14:44.968Z,21.10
2022-08-10T17:17:20.942Z,21.10
2022-08-10T17:19:50.031Z,21.10
2022-08-10T17:22:22.448Z,21.00
2022-08-10T17:25:03.137Z,21.00
2022-08-10T17:28:03.886Z,21.00
2022-08-10T17:30:34.000Z,21.00
2022-08-10T17:33:14.213Z,21.00
2022-08-10T17:35:47.832Z,21.00
2022-08-10T17:38:29.205Z,21.00
2022-08-10T17:41:13.481Z,20.90
2022-08-10T17:44:00.802Z,20.80
2022-08-10T17:46:38.837Z,20.70
2022-08-10T17:49:11.764Z,20.60
2022-08-10T17:51:42.168Z,20.60
2022-08-10T17:54:23.964Z,20.60
2022-08-10T17:56:53.741Z,20.60
2022-08-10T17:59:25.166Z,20.50
2022-08-10T18:02:03.322Z,20.50
2022-08-10T18:04:41.441Z,20.60
2022-08-10T18:07:11.883Z,20.60
2022-08-10T18:09:41.415Z,20.40
2022-08-10T18:12:17.560Z,20.40
2022-08-10T18:14:49.684Z,20.30
2022-08-10T18:17:38.474Z,20.20
2022-08-10T18:20:09.286Z,20.20
2022-08-10T18:22:53.409Z,20.80
2022-08-10T18:25:25.070Z,20.20
2022-08-10T18:28:03.691Z,20.20
2022-08-10T18:30:36.168Z,20.10
2022-08-10T18:33:09.761Z,20.10
2022-08-10T18:35:38.782Z,20.00
2022-08-10T18:38:08.622Z,20.10
2022-08-10T18:40:40.583Z,20.00
2022-08-10T18:44:06.939Z,19.90
2022-08-10T18:46:00.164Z,19.80
2022-08-10T18:48:38.021Z,19.80
2022-08-10T18:51:06.707Z,19.80
2022-08-10T18:53:59.489Z,19.70
2022-08-10T18:56:33.176Z,19.70
2022-08-10T18:59:28.668Z,19.60
2022-08-10T19:02:10.611Z,19.60
2022-08-10T19:04:56.123Z,19.60
2022-08-10T19:07:34.684Z,19.60
2022-08-10T19:10:28.185Z,19.60
2022-08-10T19:13:10.495Z,19.60
2022-08-10T19:16:02.177Z,19.50
2022-08-10T19:18:48.674Z,19.50
2022-08-10T19:21:30.888Z,19.50
2022-08-10T19:24:09.763Z,19.50
2022-08-10T19:26:51.674Z,19.50
2022-08-10T19:30:09.404Z,19.40
2022-08-10T19:33:01.156Z,19.40
2022-08-10T19:36:04.579Z,19.30
2022-08-10T19:38:51.345Z,19.20
2022-08-10T19:41:44.677Z,19.10
2022-08-10T19:44:50.423Z,19.10
2022-08-10T19:47:26.716Z,19.10
2022-08-10T19:50:18.446Z,19.10
2022-08-10T19:52:54.681Z,20.10
2022-08-10T19:55:37.627Z,19.20
2022-08-10T19:58:32.386Z,19.20
2022-08-10T20:01:07.079Z,19.10
2022-08-10T20:03:57.386Z,19.10
2022-08-10T20:07:09.403Z,19.10
2022-08-10T20:10:14.424Z,19.00
2022-08-10T20:12:52.536Z,19.00
2022-08-10T20:15:42.037Z,19.00
2022-08-10T20:18:24.273Z,19.00
2022-08-10T20:21:03.421Z,19.00
2022-08-10T20:23:36.835Z,19.00
2022-08-10T20:26:25.200Z,19.00
2022-08-10T20:29:06.974Z,18.90
2022-08-10T20:31:41.719Z,18.90
2022-08-10T20:34:31.994Z,18.90
2022-08-10T20:38:02.715Z,18.90
2022-08-10T20:40:34.558Z,18.90
2022-08-10T20:43:26.577Z,18.90
2022-08-10T20:46:20.300Z,18.90
2022-08-10T20:49:12.106Z,18.80
2022-08-10T20:51:58.297Z,18.80
2022-08-10T20:54:34.202Z,18.90
2022-08-10T20:57:56.431Z,18.80
2022-08-10T21:00:23.447Z,18.80
2022-08-10T21:03:31.899Z,18.80
2022-08-10T21:06:42.850Z,18.80
2022-08-10T21:09:14.097Z,18.80
2022-08-10T21:12:11.042Z,18.80
2022-08-10T21:14:44.645Z,18.80
2022-08-10T21:17:37.337Z,18.90
2022-08-10T21:20:39.783Z,18.90
2022-08-10T21:23:18.079Z,18.80
2022-08-10T21:26:10.653Z,18.90
2022-08-10T21:28:59.364Z,19.00
2022-08-10T21:31:49.007Z,19.00
2022-08-10T21:34:31.698Z,18.90
2022-08-10T21:37:23.159Z,19.00
2022-08-10T21:40:41.465Z,18.90
2022-08-10T21:43:47.568Z,18.90
2022-08-10T21:46:54.664Z,18.80
2022-08-10T21:50:07.136Z,18.80
2022-08-10T21:53:22.428Z,18.90
2022-08-10T21:56:34.204Z,18.90
2022-08-10T21:59:42.459Z,18.90
2022-08-10T22:02:32.089Z,18.90
2022-08-10T22:05:22.332Z,18.70
2022-08-10T22:08:12.749Z,18.80
2022-08-10T22:11:10.294Z,18.80
2022-08-10T22:14:06.027Z,18.70
2022-08-10T22:17:59.035Z,18.70
2022-08-10T22:20:29.138Z,18.70
2022-08-10T22:23:34.102Z,18.60
2022-08-10T22:26:37.396Z,18.60
2022-08-10T22:29:42.678Z,18.50
2022-08-10T22:32:58.563Z,18.50
2022-08-10T22:36:16.609Z,18.50
2022-08-10T22:40:11.756Z,18.50
2022-08-10T22:42:58.973Z,18.60
2022-08-10T22:46:09.012Z,18.50
2022-08-10T22:49:01.534Z,18.40
2022-08-10T22:51:54.906Z,18.50
2022-08-10T22:54:58.320Z,18.50
2022-08-10T22:57:45.301Z,18.40
2022-08-10T23:00:31.219Z,18.40
2022-08-10T23:03:11.907Z,18.40
2022-08-10T23:05:43.547Z,18.40
2022-08-10T23:08:29.873Z,18.50
2022-08-10T23:11:05.010Z,18.50
2022-08-10T23:13:38.155Z,18.50
2022-08-10T23:16:32.397Z,18.50
2022-08-10T23:19:22.910Z,18.50
2022-08-10T23:22:04.740Z,18.60
2022-08-10T23:24:41.910Z,18.60
2022-08-10T23:27:37.989Z,18.60
2022-08-10T23:30:09.551Z,18.60
2022-08-10T23:32:43.775Z,18.60
2022-08-10T23:36:31.402Z,19.50
2022-08-10T23:38:13.233Z,18.70
2022-08-10T23:40:46.774Z,18.70
2022-08-10T23:43:46.644Z,18.70
2022-08-10T23:46:18.024Z,18.70
2022-08-10T23:48:46.946Z,18.80
2022-08-10T23:51:17.452Z,18.70
2022-08-10T23:53:48.135Z,18.80
2022-08-10T23:56:20.951Z,18.80
2022-08-10T23:58:52.685Z,18.80
